JES3032 SAVC-SABE
Flight info
| Callsign | JES3032 |
|---|---|
| Flight time | 2h 0m |
| Altitude | 37000 |
| Route | GATUD2G GATUD UP664 TRE UT693 BCA UW22 VALOS VALOS9Q |
| Aircraft | A320/M-SDE3FGHIRWY/LB1 |
Departure
| Time | 2026-04-22 15:44 |
|---|---|
| Airport | General Enrique Mosconi International Airport (SAVC) |
Arrival
| Time | 2026-04-22 17:44 |
|---|---|
| Airport | Aeroparque Jorge Newbery (SABE) |
| Time | Latitude | Longitude | Altitude | Speed | Heading |
|---|---|---|---|---|---|
| 2026-04-22 15:08 | -45.78949 | -67.46821 | 196 ft | 0 kts | 222° |
| 2026-04-22 15:18 | -45.78948 | -67.46821 | 196 ft | 0 kts | 222° |
| 2026-04-22 15:20 | -45.78948 | -67.46820 | 196 ft | 0 kts | 222° |
| 2026-04-22 15:34 | -45.78933 | -67.46798 | 214 ft | 4 kts | 226° |
| 2026-04-22 15:34 | -45.78922 | -67.46781 | 198 ft | 2 kts | 135° |
| 2026-04-22 15:34 | -45.78908 | -67.46803 | 203 ft | 4 kts | 103° |
| 2026-04-22 15:35 | -45.78908 | -67.46827 | 202 ft | 4 kts | 74° |
| 2026-04-22 15:35 | -45.78912 | -67.46852 | 206 ft | 2 kts | 87° |
| 2026-04-22 15:37 | -45.78912 | -67.46850 | 206 ft | 1 kts | 87° |
| 2026-04-22 15:37 | -45.78907 | -67.46813 | 200 ft | 6 kts | 65° |
| 2026-04-22 15:37 | -45.78858 | -67.46799 | 201 ft | 10 kts | 359° |
| 2026-04-22 15:37 | -45.78775 | -67.46799 | 203 ft | 13 kts | 12° |
| 2026-04-22 15:38 | -45.78741 | -67.46685 | 200 ft | 13 kts | 79° |
| 2026-04-22 15:38 | -45.78709 | -67.46432 | 206 ft | 13 kts | 77° |
| 2026-04-22 15:38 | -45.78691 | -67.46302 | 207 ft | 13 kts | 79° |
| 2026-04-22 15:39 | -45.78673 | -67.46170 | 200 ft | 14 kts | 79° |
| 2026-04-22 15:39 | -45.78656 | -67.46037 | 196 ft | 14 kts | 79° |
| 2026-04-22 15:39 | -45.78638 | -67.45899 | 196 ft | 14 kts | 79° |
| 2026-04-22 15:39 | -45.78619 | -67.45759 | 209 ft | 15 kts | 79° |
| 2026-04-22 15:40 | -45.78600 | -67.45610 | 196 ft | 16 kts | 79° |
| 2026-04-22 15:40 | -45.78580 | -67.45450 | 200 ft | 17 kts | 79° |
| 2026-04-22 15:40 | -45.78556 | -67.45275 | 196 ft | 19 kts | 79° |
| 2026-04-22 15:40 | -45.78529 | -67.45082 | 206 ft | 20 kts | 79° |
| 2026-04-22 15:41 | -45.78495 | -67.44898 | 202 ft | 11 kts | 69° |
| 2026-04-22 15:41 | -45.78432 | -67.44847 | 210 ft | 6 kts | 14° |
| 2026-04-22 15:41 | -45.78418 | -67.44841 | 196 ft | 2 kts | 18° |
| 2026-04-22 15:41 | -45.78400 | -67.44832 | 203 ft | 4 kts | 18° |
| 2026-04-22 15:42 | -45.78363 | -67.44819 | 202 ft | 7 kts | 1° |
| 2026-04-22 15:42 | -45.78308 | -67.44809 | 200 ft | 8 kts | 356° |
| 2026-04-22 15:42 | -45.78300 | -67.44861 | 197 ft | 5 kts | 258° |
| 2026-04-22 15:42 | -45.78301 | -67.44867 | 201 ft | 0 kts | 258° |
| 2026-04-22 15:43 | -45.78314 | -67.44964 | 196 ft | 35 kts | 259° |
| 2026-04-22 15:43 | -45.78397 | -67.45624 | 201 ft | 96 kts | 259° |
| 2026-04-22 15:43 | -45.78553 | -67.46783 | 226 ft | 137 kts | 261° |
| 2026-04-22 15:43 | -45.78750 | -67.48172 | 665 ft | 145 kts | 260° |
| 2026-04-22 15:44 | -45.78970 | -67.49582 | 1261 ft | 149 kts | 253° |
| 2026-04-22 15:44 | -45.79427 | -67.50953 | 1714 ft | 158 kts | 245° |
| 2026-04-22 15:44 | -45.79971 | -67.52415 | 2036 ft | 175 kts | 245° |
| 2026-04-22 15:44 | -45.80563 | -67.54062 | 2319 ft | 197 kts | 245° |
| 2026-04-22 15:45 | -45.81188 | -67.55838 | 3028 ft | 201 kts | 246° |
| 2026-04-22 15:45 | -45.81810 | -67.57627 | 3889 ft | 200 kts | 246° |
| 2026-04-22 15:45 | -45.82220 | -67.58816 | 4455 ft | 201 kts | 245° |
| 2026-04-22 15:45 | -45.82798 | -67.60644 | 5308 ft | 203 kts | 253° |
| 2026-04-22 15:46 | -45.82945 | -67.62679 | 6045 ft | 211 kts | 274° |
| 2026-04-22 15:46 | -45.82488 | -67.64722 | 6755 ft | 223 kts | 296° |
| 2026-04-22 15:46 | -45.81443 | -67.66413 | 7503 ft | 233 kts | 315° |
| 2026-04-22 15:46 | -45.80181 | -67.67891 | 8271 ft | 236 kts | 315° |
| 2026-04-22 15:47 | -45.78906 | -67.69385 | 9018 ft | 238 kts | 315° |
| 2026-04-22 15:47 | -45.77616 | -67.70897 | 9766 ft | 241 kts | 316° |
| 2026-04-22 15:47 | -45.76140 | -67.72186 | 10242 ft | 264 kts | 335° |
| 2026-04-22 15:47 | -45.74214 | -67.72437 | 10466 ft | 299 kts | 7° |
| 2026-04-22 15:48 | -45.72213 | -67.71201 | 10665 ft | 329 kts | 28° |
| 2026-04-22 15:48 | -45.70259 | -67.69280 | 10895 ft | 350 kts | 34° |
| 2026-04-22 15:48 | -45.68332 | -67.67086 | 11470 ft | 357 kts | 36° |
| 2026-04-22 15:48 | -45.66408 | -67.64791 | 12103 ft | 361 kts | 37° |
| 2026-04-22 15:49 | -45.64466 | -67.62487 | 12752 ft | 365 kts | 36° |
| 2026-04-22 15:49 | -45.62489 | -67.60202 | 13435 ft | 366 kts | 34° |
| 2026-04-22 15:49 | -45.60478 | -67.57943 | 14072 ft | 369 kts | 34° |
| 2026-04-22 15:49 | -45.58435 | -67.55695 | 14605 ft | 373 kts | 34° |
| 2026-04-22 15:50 | -45.56365 | -67.53441 | 15125 ft | 377 kts | 34° |
| 2026-04-22 15:50 | -45.54264 | -67.51163 | 15660 ft | 381 kts | 34° |
| 2026-04-22 15:50 | -45.52171 | -67.48893 | 16157 ft | 385 kts | 34° |
| 2026-04-22 15:50 | -45.50025 | -67.46565 | 16686 ft | 389 kts | 34° |
| 2026-04-22 15:51 | -45.47831 | -67.44181 | 17196 ft | 394 kts | 34° |
| 2026-04-22 15:51 | -45.45641 | -67.41799 | 17715 ft | 398 kts | 34° |
| 2026-04-22 15:51 | -45.43433 | -67.39394 | 18241 ft | 402 kts | 34° |
| 2026-04-22 15:51 | -45.41203 | -67.36965 | 18704 ft | 405 kts | 35° |
| 2026-04-22 15:52 | -45.38953 | -67.34516 | 19167 ft | 409 kts | 35° |
| 2026-04-22 15:52 | -45.36679 | -67.32048 | 19649 ft | 413 kts | 35° |
| 2026-04-22 15:52 | -45.34411 | -67.29594 | 20108 ft | 416 kts | 36° |
| 2026-04-22 15:52 | -45.32096 | -67.27095 | 20572 ft | 420 kts | 36° |
| 2026-04-22 15:53 | -45.29761 | -67.24578 | 21034 ft | 423 kts | 36° |
| 2026-04-22 15:53 | -45.27412 | -67.22046 | 21478 ft | 426 kts | 36° |
| 2026-04-22 15:53 | -45.25045 | -67.19494 | 21913 ft | 429 kts | 37° |
| 2026-04-22 15:53 | -45.22661 | -67.16924 | 22352 ft | 432 kts | 37° |
| 2026-04-22 15:54 | -45.20256 | -67.14334 | 22757 ft | 436 kts | 37° |
| 2026-04-22 15:54 | -45.17836 | -67.11727 | 23201 ft | 439 kts | 38° |
| 2026-04-22 15:54 | -45.15400 | -67.09105 | 23604 ft | 442 kts | 38° |
| 2026-04-22 15:54 | -45.12941 | -67.06470 | 23967 ft | 444 kts | 38° |
| 2026-04-22 15:55 | -45.10463 | -67.03825 | 24326 ft | 447 kts | 38° |
| 2026-04-22 15:55 | -45.07973 | -67.01172 | 24681 ft | 449 kts | 38° |
| 2026-04-22 15:55 | -45.05470 | -66.98503 | 25031 ft | 452 kts | 38° |
| 2026-04-22 15:55 | -45.02951 | -66.95807 | 25388 ft | 455 kts | 38° |
| 2026-04-22 15:56 | -45.00420 | -66.93100 | 25751 ft | 457 kts | 38° |
| 2026-04-22 15:56 | -44.97875 | -66.90379 | 26106 ft | 460 kts | 38° |
| 2026-04-22 15:56 | -44.95320 | -66.87648 | 26441 ft | 462 kts | 38° |
| 2026-04-22 15:56 | -44.92749 | -66.84906 | 26772 ft | 464 kts | 38° |
| 2026-04-22 15:57 | -44.90165 | -66.82154 | 27123 ft | 466 kts | 38° |
| 2026-04-22 15:57 | -44.87598 | -66.79429 | 27459 ft | 469 kts | 38° |
| 2026-04-22 15:57 | -44.84986 | -66.76665 | 27780 ft | 471 kts | 38° |
| 2026-04-22 15:57 | -44.82357 | -66.73890 | 28119 ft | 473 kts | 38° |
| 2026-04-22 15:58 | -44.79715 | -66.71102 | 28455 ft | 476 kts | 38° |
| 2026-04-22 15:58 | -44.77059 | -66.68300 | 28791 ft | 478 kts | 38° |
| 2026-04-22 15:58 | -44.74393 | -66.65492 | 29121 ft | 480 kts | 38° |
| 2026-04-22 15:58 | -44.71712 | -66.62668 | 29452 ft | 483 kts | 38° |
| 2026-04-22 15:59 | -44.69013 | -66.59828 | 29791 ft | 485 kts | 38° |
| 2026-04-22 15:59 | -44.66317 | -66.56995 | 30209 ft | 484 kts | 38° |
| 2026-04-22 15:59 | -44.63623 | -66.54166 | 30619 ft | 483 kts | 38° |
| 2026-04-22 15:59 | -44.60937 | -66.51354 | 31031 ft | 482 kts | 37° |
| 2026-04-22 16:00 | -44.58255 | -66.48551 | 31435 ft | 480 kts | 37° |
| 2026-04-22 16:00 | -44.55575 | -66.45754 | 31862 ft | 479 kts | 37° |
| 2026-04-22 16:00 | -44.52905 | -66.42972 | 32300 ft | 478 kts | 37° |
| 2026-04-22 16:00 | -44.50241 | -66.40201 | 32712 ft | 477 kts | 37° |
| 2026-04-22 16:01 | -44.47583 | -66.37439 | 33127 ft | 475 kts | 37° |
| 2026-04-22 16:01 | -44.44929 | -66.34681 | 33550 ft | 474 kts | 37° |
| 2026-04-22 16:01 | -44.42288 | -66.31932 | 33981 ft | 472 kts | 37° |
| 2026-04-22 16:01 | -44.39654 | -66.29188 | 34334 ft | 471 kts | 36° |
| 2026-04-22 16:02 | -44.37032 | -66.26458 | 34676 ft | 469 kts | 36° |
| 2026-04-22 16:02 | -44.34416 | -66.23743 | 35002 ft | 468 kts | 36° |
| 2026-04-22 16:02 | -44.31808 | -66.21045 | 35334 ft | 466 kts | 36° |
| 2026-04-22 16:02 | -44.29206 | -66.18353 | 35647 ft | 465 kts | 35° |
| 2026-04-22 16:03 | -44.26614 | -66.15672 | 35950 ft | 464 kts | 35° |
| 2026-04-22 16:03 | -44.24057 | -66.13032 | 36242 ft | 462 kts | 35° |
| 2026-04-22 16:03 | -44.21476 | -66.10374 | 36543 ft | 461 kts | 34° |
| 2026-04-22 16:03 | -44.18902 | -66.07727 | 36833 ft | 459 kts | 34° |
| 2026-04-22 16:04 | -44.16329 | -66.05084 | 36974 ft | 459 kts | 34° |
| 2026-04-22 16:04 | -44.13746 | -66.02435 | 36990 ft | 463 kts | 34° |
| 2026-04-22 16:04 | -44.08536 | -65.97101 | 36989 ft | 465 kts | 34° |
| 2026-04-22 16:05 | -44.03318 | -65.91767 | 36987 ft | 465 kts | 34° |
| 2026-04-22 16:05 | -43.98010 | -65.86680 | 36988 ft | 462 kts | 27° |
| 2026-04-22 16:06 | -43.92455 | -65.82189 | 36991 ft | 462 kts | 27° |
| 2026-04-22 16:06 | -43.86897 | -65.77708 | 37003 ft | 462 kts | 27° |
| 2026-04-22 16:07 | -43.81341 | -65.73238 | 37004 ft | 462 kts | 27° |
| 2026-04-22 16:07 | -43.75784 | -65.68783 | 37017 ft | 461 kts | 27° |
| 2026-04-22 16:08 | -43.70237 | -65.64340 | 37005 ft | 460 kts | 27° |
| 2026-04-22 16:08 | -43.64696 | -65.59905 | 37010 ft | 460 kts | 27° |
| 2026-04-22 16:09 | -43.59165 | -65.55499 | 37006 ft | 459 kts | 27° |
| 2026-04-22 16:09 | -43.53635 | -65.51098 | 37013 ft | 458 kts | 26° |
| 2026-04-22 16:10 | -43.48229 | -65.46807 | 37000 ft | 458 kts | 26° |
| 2026-04-22 16:10 | -43.42929 | -65.42609 | 36998 ft | 457 kts | 26° |
| 2026-04-22 16:11 | -43.37416 | -65.38239 | 36991 ft | 457 kts | 26° |
| 2026-04-22 16:11 | -43.31944 | -65.33913 | 36988 ft | 457 kts | 26° |
| 2026-04-22 16:12 | -43.26433 | -65.29574 | 36981 ft | 456 kts | 26° |
| 2026-04-22 16:12 | -43.20929 | -65.25258 | 36985 ft | 456 kts | 26° |
| 2026-04-22 16:13 | -43.15392 | -65.21031 | 36978 ft | 455 kts | 25° |
| 2026-04-22 16:13 | -43.09975 | -65.17074 | 36986 ft | 455 kts | 24° |
| 2026-04-22 16:14 | -43.04381 | -65.13020 | 36993 ft | 455 kts | 24° |
| 2026-04-22 16:14 | -42.99902 | -65.09744 | 37008 ft | 455 kts | 24° |
| 2026-04-22 16:15 | -42.97931 | -65.08404 | 37012 ft | 453 kts | 22° |
| 2026-04-22 16:15 | -42.92338 | -65.04399 | 37017 ft | 455 kts | 25° |
| 2026-04-22 16:16 | -42.86856 | -65.00202 | 37015 ft | 455 kts | 25° |
| 2026-04-22 16:16 | -42.81305 | -64.96051 | 37020 ft | 454 kts | 24° |
| 2026-04-22 16:17 | -42.75737 | -64.92010 | 37028 ft | 453 kts | 24° |
| 2026-04-22 16:17 | -42.70160 | -64.87990 | 37033 ft | 453 kts | 24° |
| 2026-04-22 16:18 | -42.64594 | -64.83947 | 37022 ft | 453 kts | 24° |
| 2026-04-22 16:18 | -42.59032 | -64.79910 | 37020 ft | 453 kts | 24° |
| 2026-04-22 16:19 | -42.53469 | -64.75879 | 37014 ft | 452 kts | 24° |
| 2026-04-22 16:19 | -42.47909 | -64.71870 | 37020 ft | 452 kts | 24° |
| 2026-04-22 16:20 | -42.42356 | -64.67873 | 37021 ft | 452 kts | 24° |
| 2026-04-22 16:20 | -42.36835 | -64.63907 | 37029 ft | 452 kts | 24° |
| 2026-04-22 16:21 | -42.31248 | -64.60014 | 37027 ft | 451 kts | 22° |
| 2026-04-22 16:21 | -42.25649 | -64.56209 | 37028 ft | 451 kts | 22° |
| 2026-04-22 16:22 | -42.17257 | -64.50485 | 37021 ft | 450 kts | 22° |
| 2026-04-22 16:23 | -42.08890 | -64.44745 | 37017 ft | 450 kts | 22° |
| 2026-04-22 16:23 | -42.03312 | -64.40941 | 37021 ft | 449 kts | 22° |
| 2026-04-22 16:24 | -41.94941 | -64.35256 | 37018 ft | 449 kts | 22° |
| 2026-04-22 16:25 | -41.89355 | -64.31466 | 37012 ft | 450 kts | 22° |
| 2026-04-22 16:25 | -41.81000 | -64.25797 | 37016 ft | 450 kts | 22° |
| 2026-04-22 16:26 | -41.76126 | -64.22493 | 37012 ft | 450 kts | 23° |
| 2026-04-22 16:26 | -41.70529 | -64.18718 | 37016 ft | 450 kts | 22° |
| 2026-04-22 16:27 | -41.64929 | -64.14946 | 37012 ft | 451 kts | 23° |
| 2026-04-22 16:27 | -41.59323 | -64.11178 | 37020 ft | 451 kts | 23° |
| 2026-04-22 16:28 | -41.53709 | -64.07426 | 37018 ft | 451 kts | 22° |
| 2026-04-22 16:28 | -41.48082 | -64.03677 | 37025 ft | 451 kts | 23° |
| 2026-04-22 16:29 | -41.42461 | -63.99922 | 37024 ft | 452 kts | 23° |
| 2026-04-22 16:29 | -41.36839 | -63.96173 | 37026 ft | 452 kts | 23° |
| 2026-04-22 16:30 | -41.31218 | -63.92423 | 37019 ft | 452 kts | 23° |
| 2026-04-22 16:30 | -41.25629 | -63.88711 | 37024 ft | 452 kts | 23° |
| 2026-04-22 16:31 | -41.19990 | -63.84978 | 37023 ft | 453 kts | 23° |
| 2026-04-22 16:31 | -41.14371 | -63.81265 | 37027 ft | 454 kts | 23° |
| 2026-04-22 16:32 | -41.08714 | -63.77532 | 37024 ft | 454 kts | 23° |
| 2026-04-22 16:32 | -41.04003 | -63.74430 | 37035 ft | 454 kts | 23° |
| 2026-04-22 16:33 | -40.98334 | -63.70699 | 37038 ft | 455 kts | 23° |
| 2026-04-22 16:33 | -40.92657 | -63.66979 | 37035 ft | 455 kts | 23° |
| 2026-04-22 16:34 | -40.87054 | -63.63180 | 37030 ft | 456 kts | 25° |
| 2026-04-22 16:34 | -40.81465 | -63.59078 | 37033 ft | 457 kts | 26° |
| 2026-04-22 16:35 | -40.75921 | -63.54977 | 37027 ft | 457 kts | 26° |
| 2026-04-22 16:35 | -40.70342 | -63.50943 | 37033 ft | 457 kts | 25° |
| 2026-04-22 16:36 | -40.64782 | -63.46978 | 37034 ft | 457 kts | 25° |
| 2026-04-22 16:36 | -40.59192 | -63.42982 | 37034 ft | 457 kts | 25° |
| 2026-04-22 16:37 | -40.53608 | -63.38986 | 37029 ft | 457 kts | 25° |
| 2026-04-22 16:37 | -40.48021 | -63.34998 | 37031 ft | 457 kts | 25° |
| 2026-04-22 16:38 | -40.42439 | -63.31022 | 37029 ft | 457 kts | 25° |
| 2026-04-22 16:38 | -40.36845 | -63.27047 | 37031 ft | 457 kts | 25° |
| 2026-04-22 16:39 | -40.31257 | -63.23083 | 37028 ft | 457 kts | 25° |
| 2026-04-22 16:39 | -40.25670 | -63.19127 | 37034 ft | 456 kts | 25° |
| 2026-04-22 16:40 | -40.20087 | -63.15172 | 37030 ft | 456 kts | 25° |
| 2026-04-22 16:41 | -40.11710 | -63.09279 | 37026 ft | 456 kts | 24° |
| 2026-04-22 16:41 | -40.06125 | -63.05351 | 37028 ft | 456 kts | 24° |
| 2026-04-22 16:42 | -40.00544 | -63.01429 | 37024 ft | 456 kts | 24° |
| 2026-04-22 16:42 | -39.94959 | -62.97508 | 37030 ft | 456 kts | 24° |
| 2026-04-22 16:43 | -39.89374 | -62.93591 | 37028 ft | 456 kts | 24° |
| 2026-04-22 16:43 | -39.83791 | -62.89693 | 37033 ft | 456 kts | 24° |
| 2026-04-22 16:44 | -39.78192 | -62.85798 | 37028 ft | 456 kts | 24° |
| 2026-04-22 16:44 | -39.72629 | -62.81929 | 37035 ft | 456 kts | 24° |
| 2026-04-22 16:45 | -39.67029 | -62.78033 | 37029 ft | 457 kts | 24° |
| 2026-04-22 16:45 | -39.61416 | -62.74143 | 37030 ft | 457 kts | 24° |
| 2026-04-22 16:46 | -39.55801 | -62.70249 | 37031 ft | 458 kts | 24° |
| 2026-04-22 16:46 | -39.50178 | -62.66364 | 37038 ft | 458 kts | 23° |
| 2026-04-22 16:47 | -39.44513 | -62.62589 | 37037 ft | 458 kts | 22° |
| 2026-04-22 16:47 | -39.38812 | -62.58921 | 37045 ft | 458 kts | 21° |
| 2026-04-22 16:48 | -39.33106 | -62.55250 | 37047 ft | 458 kts | 22° |
| 2026-04-22 16:48 | -39.27405 | -62.51543 | 37057 ft | 459 kts | 22° |
| 2026-04-22 16:49 | -39.21707 | -62.47826 | 37055 ft | 459 kts | 22° |
| 2026-04-22 16:49 | -39.16233 | -62.44273 | 37062 ft | 459 kts | 22° |
| 2026-04-22 16:50 | -39.10559 | -62.40609 | 37063 ft | 458 kts | 22° |
| 2026-04-22 16:50 | -39.05315 | -62.37224 | 37068 ft | 458 kts | 22° |
| 2026-04-22 16:51 | -38.99607 | -62.33549 | 37074 ft | 458 kts | 22° |
| 2026-04-22 16:51 | -38.93906 | -62.29876 | 37082 ft | 458 kts | 21° |
| 2026-04-22 16:52 | -38.88212 | -62.26211 | 37084 ft | 458 kts | 21° |
| 2026-04-22 16:52 | -38.82502 | -62.22552 | 37092 ft | 458 kts | 21° |
| 2026-04-22 16:53 | -38.76823 | -62.18920 | 37088 ft | 458 kts | 21° |
| 2026-04-22 16:53 | -38.71181 | -62.15088 | 37090 ft | 462 kts | 30° |
| 2026-04-22 16:54 | -38.65903 | -62.10312 | 37093 ft | 464 kts | 31° |
| 2026-04-22 16:54 | -38.60652 | -62.05536 | 37092 ft | 464 kts | 30° |
| 2026-04-22 16:55 | -38.55386 | -62.00753 | 37094 ft | 463 kts | 30° |
| 2026-04-22 16:55 | -38.50122 | -61.95987 | 37085 ft | 463 kts | 30° |
| 2026-04-22 16:56 | -38.44890 | -61.91260 | 37077 ft | 463 kts | 30° |
| 2026-04-22 16:56 | -38.39622 | -61.86522 | 37084 ft | 463 kts | 30° |
| 2026-04-22 16:57 | -38.34356 | -61.81787 | 37078 ft | 463 kts | 30° |
| 2026-04-22 16:57 | -38.29095 | -61.77056 | 37083 ft | 463 kts | 30° |
| 2026-04-22 16:58 | -38.24723 | -61.73129 | 37086 ft | 462 kts | 30° |
| 2026-04-22 16:58 | -38.18564 | -61.67624 | 37088 ft | 462 kts | 29° |
| 2026-04-22 16:59 | -38.13339 | -61.62965 | 37082 ft | 462 kts | 29° |
| 2026-04-22 16:59 | -38.08086 | -61.58279 | 37078 ft | 461 kts | 29° |
| 2026-04-22 17:00 | -38.02828 | -61.53596 | 37083 ft | 461 kts | 29° |
| 2026-04-22 17:00 | -37.94943 | -61.46611 | 37076 ft | 460 kts | 28° |
| 2026-04-22 17:01 | -37.89719 | -61.41987 | 37079 ft | 460 kts | 28° |
| 2026-04-22 17:01 | -37.84472 | -61.37340 | 37091 ft | 460 kts | 28° |
| 2026-04-22 17:02 | -37.79216 | -61.32697 | 37089 ft | 460 kts | 28° |
| 2026-04-22 17:02 | -37.73964 | -61.28076 | 37091 ft | 460 kts | 28° |
| 2026-04-22 17:03 | -37.68709 | -61.23459 | 37092 ft | 460 kts | 28° |
| 2026-04-22 17:03 | -37.63461 | -61.18841 | 37089 ft | 460 kts | 28° |
| 2026-04-22 17:04 | -37.58480 | -61.14483 | 37089 ft | 459 kts | 27° |
| 2026-04-22 17:04 | -37.53224 | -61.09909 | 37091 ft | 459 kts | 27° |
| 2026-04-22 17:05 | -37.47999 | -61.05355 | 37094 ft | 459 kts | 27° |
| 2026-04-22 17:05 | -37.42751 | -61.00777 | 37098 ft | 459 kts | 27° |
| 2026-04-22 17:06 | -37.37495 | -60.96196 | 37097 ft | 459 kts | 27° |
| 2026-04-22 17:06 | -37.32239 | -60.91622 | 37101 ft | 460 kts | 27° |
| 2026-04-22 17:07 | -37.26976 | -60.87054 | 37096 ft | 460 kts | 27° |
| 2026-04-22 17:07 | -37.21701 | -60.82486 | 37094 ft | 461 kts | 26° |
| 2026-04-22 17:08 | -37.16424 | -60.77928 | 37096 ft | 461 kts | 26° |
| 2026-04-22 17:08 | -37.11139 | -60.73366 | 37093 ft | 462 kts | 26° |
| 2026-04-22 17:09 | -37.05845 | -60.68801 | 37097 ft | 462 kts | 26° |
| 2026-04-22 17:09 | -37.00540 | -60.64246 | 37097 ft | 463 kts | 26° |
| 2026-04-22 17:10 | -36.95223 | -60.59696 | 37102 ft | 463 kts | 26° |
| 2026-04-22 17:10 | -36.89939 | -60.55174 | 37102 ft | 464 kts | 26° |
| 2026-04-22 17:11 | -36.84606 | -60.50616 | 37104 ft | 464 kts | 26° |
| 2026-04-22 17:11 | -36.79278 | -60.46057 | 37103 ft | 464 kts | 26° |
| 2026-04-22 17:12 | -36.73949 | -60.41505 | 37109 ft | 464 kts | 26° |
| 2026-04-22 17:12 | -36.68616 | -60.36963 | 37113 ft | 464 kts | 25° |
| 2026-04-22 17:13 | -36.63282 | -60.32438 | 37113 ft | 464 kts | 25° |
| 2026-04-22 17:13 | -36.57954 | -60.27926 | 37112 ft | 463 kts | 25° |
| 2026-04-22 17:14 | -36.52617 | -60.23416 | 37113 ft | 464 kts | 25° |
| 2026-04-22 17:14 | -36.47272 | -60.18919 | 37113 ft | 464 kts | 25° |
| 2026-04-22 17:15 | -36.41922 | -60.14439 | 37112 ft | 464 kts | 25° |
| 2026-04-22 17:15 | -36.36574 | -60.09963 | 37105 ft | 464 kts | 25° |
| 2026-04-22 17:16 | -36.31216 | -60.05479 | 37105 ft | 465 kts | 25° |
| 2026-04-22 17:16 | -36.25848 | -60.01002 | 37107 ft | 465 kts | 25° |
| 2026-04-22 17:17 | -36.20472 | -59.96538 | 37106 ft | 466 kts | 24° |
| 2026-04-22 17:17 | -36.15998 | -59.92814 | 37100 ft | 466 kts | 24° |
| 2026-04-22 17:18 | -36.10608 | -59.88329 | 37099 ft | 467 kts | 24° |
| 2026-04-22 17:18 | -36.05204 | -59.83842 | 37098 ft | 468 kts | 24° |
| 2026-04-22 17:19 | -35.94348 | -59.74878 | 37098 ft | 470 kts | 24° |
| 2026-04-22 17:20 | -35.83413 | -59.65872 | 35902 ft | 483 kts | 24° |
| 2026-04-22 17:21 | -35.81203 | -59.64054 | 35612 ft | 479 kts | 25° |
| 2026-04-22 17:21 | -35.78217 | -59.61487 | 36069 ft | 454 kts | 26° |
| 2026-04-22 17:22 | -35.73012 | -59.57106 | 34673 ft | 460 kts | 23° |
| 2026-04-22 17:22 | -35.70265 | -59.54961 | 33506 ft | 474 kts | 24° |
| 2026-04-22 17:22 | -35.64769 | -59.50617 | 32715 ft | 462 kts | 25° |
| 2026-04-22 17:23 | -35.62098 | -59.48440 | 32193 ft | 460 kts | 25° |
| 2026-04-22 17:23 | -35.56815 | -59.44085 | 31221 ft | 453 kts | 26° |
| 2026-04-22 17:23 | -35.54208 | -59.41938 | 30749 ft | 450 kts | 26° |
| 2026-04-22 17:24 | -35.51618 | -59.39814 | 30290 ft | 446 kts | 26° |
| 2026-04-22 17:24 | -35.49060 | -59.37678 | 29768 ft | 445 kts | 31° |
| 2026-04-22 17:24 | -35.46775 | -59.35078 | 29275 ft | 451 kts | 43° |
| 2026-04-22 17:24 | -35.44924 | -59.31959 | 28819 ft | 455 kts | 54° |
| 2026-04-22 17:25 | -35.43559 | -59.28436 | 28238 ft | 459 kts | 63° |
| 2026-04-22 17:25 | -35.42386 | -59.24830 | 27816 ft | 453 kts | 63° |
| 2026-04-22 17:25 | -35.41212 | -59.21251 | 27374 ft | 449 kts | 63° |
| 2026-04-22 17:25 | -35.40046 | -59.17719 | 26878 ft | 446 kts | 62° |
| 2026-04-22 17:26 | -35.38881 | -59.14208 | 26443 ft | 443 kts | 62° |
| 2026-04-22 17:26 | -35.37721 | -59.10729 | 26007 ft | 439 kts | 62° |
| 2026-04-22 17:26 | -35.36567 | -59.07276 | 25613 ft | 435 kts | 62° |
| 2026-04-22 17:26 | -35.35422 | -59.03846 | 25146 ft | 434 kts | 62° |
| 2026-04-22 17:27 | -35.34287 | -59.00449 | 24686 ft | 432 kts | 62° |
| 2026-04-22 17:27 | -35.33150 | -58.97060 | 24390 ft | 427 kts | 62° |
| 2026-04-22 17:27 | -35.32031 | -58.93711 | 24053 ft | 422 kts | 62° |
| 2026-04-22 17:27 | -35.30938 | -58.90431 | 23934 ft | 410 kts | 62° |
| 2026-04-22 17:28 | -35.30376 | -58.88742 | 23867 ft | 405 kts | 61° |
| 2026-04-22 17:28 | -35.29516 | -58.86165 | 23656 ft | 399 kts | 61° |
| 2026-04-22 17:28 | -35.28483 | -58.83081 | 23289 ft | 395 kts | 61° |
| 2026-04-22 17:28 | -35.27443 | -58.79987 | 22886 ft | 392 kts | 61° |
| 2026-04-22 17:29 | -35.26394 | -58.76877 | 22484 ft | 389 kts | 61° |
| 2026-04-22 17:29 | -35.25362 | -58.73827 | 22081 ft | 386 kts | 61° |
| 2026-04-22 17:29 | -35.24340 | -58.70801 | 21694 ft | 383 kts | 61° |
| 2026-04-22 17:29 | -35.23344 | -58.67853 | 21312 ft | 381 kts | 61° |
| 2026-04-22 17:30 | -35.22335 | -58.64869 | 20930 ft | 378 kts | 61° |
| 2026-04-22 17:30 | -35.21320 | -58.61868 | 20550 ft | 376 kts | 62° |
| 2026-04-22 17:30 | -35.20337 | -58.58967 | 20180 ft | 373 kts | 62° |
| 2026-04-22 17:30 | -35.19345 | -58.56045 | 19825 ft | 371 kts | 62° |
| 2026-04-22 17:31 | -35.18351 | -58.53103 | 19461 ft | 369 kts | 62° |
| 2026-04-22 17:31 | -35.17392 | -58.50251 | 19119 ft | 366 kts | 62° |
| 2026-04-22 17:31 | -35.16440 | -58.47367 | 18776 ft | 365 kts | 63° |
| 2026-04-22 17:31 | -35.15511 | -58.44493 | 18440 ft | 362 kts | 63° |
| 2026-04-22 17:32 | -35.14592 | -58.41633 | 18058 ft | 361 kts | 63° |
| 2026-04-22 17:32 | -35.13679 | -58.38792 | 17671 ft | 359 kts | 63° |
| 2026-04-22 17:32 | -35.12764 | -58.35965 | 17294 ft | 357 kts | 63° |
| 2026-04-22 17:32 | -35.11850 | -58.33149 | 16927 ft | 355 kts | 63° |
| 2026-04-22 17:33 | -35.11235 | -58.31261 | 16682 ft | 353 kts | 63° |
| 2026-04-22 17:33 | -35.10034 | -58.27578 | 16219 ft | 351 kts | 63° |
| 2026-04-22 17:33 | -35.09130 | -58.24811 | 15861 ft | 349 kts | 63° |
| 2026-04-22 17:33 | -35.08226 | -58.22066 | 15525 ft | 348 kts | 63° |
| 2026-04-22 17:34 | -35.07323 | -58.19336 | 15197 ft | 345 kts | 63° |
| 2026-04-22 17:34 | -35.06432 | -58.16634 | 14623 ft | 342 kts | 63° |
| 2026-04-22 17:34 | -35.05313 | -58.14134 | 14044 ft | 330 kts | 45° |
| 2026-04-22 17:34 | -35.03678 | -58.12283 | 13480 ft | 314 kts | 26° |
| 2026-04-22 17:35 | -35.01740 | -58.11198 | 12851 ft | 301 kts | 8° |
| 2026-04-22 17:35 | -34.99709 | -58.10897 | 12220 ft | 290 kts | 351° |
| 2026-04-22 17:35 | -34.97721 | -58.11173 | 11571 ft | 287 kts | 347° |
| 2026-04-22 17:35 | -34.95741 | -58.11486 | 10937 ft | 288 kts | 347° |
| 2026-04-22 17:36 | -34.93790 | -58.11791 | 10357 ft | 289 kts | 347° |
| 2026-04-22 17:36 | -34.91796 | -58.12101 | 9754 ft | 289 kts | 347° |
| 2026-04-22 17:36 | -34.89800 | -58.12410 | 9141 ft | 288 kts | 348° |
| 2026-04-22 17:36 | -34.87842 | -58.12709 | 8581 ft | 287 kts | 348° |
| 2026-04-22 17:37 | -34.85870 | -58.13012 | 8003 ft | 285 kts | 349° |
| 2026-04-22 17:37 | -34.83903 | -58.13315 | 7454 ft | 284 kts | 349° |
| 2026-04-22 17:37 | -34.81953 | -58.13619 | 6921 ft | 282 kts | 349° |
| 2026-04-22 17:37 | -34.80003 | -58.13921 | 6368 ft | 281 kts | 349° |
| 2026-04-22 17:38 | -34.78075 | -58.14219 | 5842 ft | 279 kts | 350° |
| 2026-04-22 17:38 | -34.76165 | -58.14517 | 5467 ft | 270 kts | 350° |
| 2026-04-22 17:38 | -34.74359 | -58.14790 | 5334 ft | 253 kts | 350° |
| 2026-04-22 17:38 | -34.72651 | -58.15055 | 5034 ft | 244 kts | 347° |
| 2026-04-22 17:39 | -34.71072 | -58.15692 | 4587 ft | 237 kts | 329° |
| 2026-04-22 17:39 | -34.69765 | -58.16864 | 4128 ft | 231 kts | 311° |
| 2026-04-22 17:39 | -34.67985 | -58.19914 | 3611 ft | 215 kts | 302° |
| 2026-04-22 17:40 | -34.67162 | -58.21392 | 3540 ft | 205 kts | 301° |
| 2026-04-22 17:40 | -34.66377 | -58.22797 | 3445 ft | 198 kts | 302° |
| 2026-04-22 17:40 | -34.65616 | -58.24158 | 3352 ft | 197 kts | 302° |
| 2026-04-22 17:40 | -34.64844 | -58.25539 | 3077 ft | 196 kts | 302° |
| 2026-04-22 17:41 | -34.64090 | -58.26888 | 2790 ft | 190 kts | 302° |
| 2026-04-22 17:41 | -34.63423 | -58.28084 | 2538 ft | 185 kts | 302° |
| 2026-04-22 17:41 | -34.62748 | -58.29300 | 2301 ft | 180 kts | 301° |
| 2026-04-22 17:41 | -34.62070 | -58.30515 | 2078 ft | 165 kts | 302° |
| 2026-04-22 17:42 | -34.61464 | -58.31599 | 1853 ft | 149 kts | 302° |
| 2026-04-22 17:42 | -34.60900 | -58.32611 | 1653 ft | 143 kts | 303° |
| 2026-04-22 17:42 | -34.60340 | -58.33617 | 1461 ft | 142 kts | 301° |
| 2026-04-22 17:42 | -34.59792 | -58.34610 | 1256 ft | 141 kts | 301° |
| 2026-04-22 17:43 | -34.59259 | -58.35605 | 1086 ft | 141 kts | 300° |
| 2026-04-22 17:43 | -34.58711 | -58.36589 | 839 ft | 141 kts | 301° |
| 2026-04-22 17:43 | -34.58153 | -58.37567 | 650 ft | 143 kts | 301° |
| 2026-04-22 17:43 | -34.57600 | -58.38562 | 417 ft | 143 kts | 303° |
| 2026-04-22 17:44 | -34.57045 | -58.39553 | 285 ft | 144 kts | 302° |
| 2026-04-22 17:44 | -34.56485 | -58.40576 | 95 ft | 143 kts | 301° |
| 2026-04-22 17:44 | -34.55950 | -58.41541 | 24 ft | 121 kts | 305° |
| 2026-04-22 17:44 | -34.55643 | -58.42081 | 27 ft | 34 kts | 305° |
| 2026-04-22 17:45 | -34.55533 | -58.42290 | 28 ft | 29 kts | 302° |
| 2026-04-22 17:45 | -34.55432 | -58.42463 | 28 ft | 20 kts | 304° |
| 2026-04-22 17:45 | -34.55376 | -58.42496 | 26 ft | 10 kts | 30° |
| 2026-04-22 17:45 | -34.55367 | -58.42418 | 25 ft | 11 kts | 102° |
| 2026-04-22 17:46 | -34.55399 | -58.42327 | 26 ft | 13 kts | 126° |
| 2026-04-22 17:46 | -34.55459 | -58.42232 | 27 ft | 16 kts | 127° |
| 2026-04-22 17:46 | -34.55531 | -58.42119 | 27 ft | 18 kts | 128° |
| 2026-04-22 17:46 | -34.55607 | -58.41988 | 27 ft | 20 kts | 123° |
| 2026-04-22 17:47 | -34.55686 | -58.41847 | 28 ft | 21 kts | 123° |
| 2026-04-22 17:47 | -34.55760 | -58.41695 | 26 ft | 15 kts | 116° |
| 2026-04-22 17:47 | -34.55802 | -58.41592 | 26 ft | 16 kts | 116° |
| 2026-04-22 17:47 | -34.55845 | -58.41492 | 27 ft | 9 kts | 118° |
| 2026-04-22 17:48 | -34.55863 | -58.41446 | 25 ft | 9 kts | 115° |
| 2026-04-22 17:48 | -34.55905 | -58.41349 | 26 ft | 10 kts | 117° |
| 2026-04-22 17:48 | -34.55873 | -58.41288 | 25 ft | 10 kts | 28° |
| 2026-04-22 17:48 | -34.55820 | -58.41316 | 28 ft | 9 kts | 304° |
| 2026-04-22 17:49 | -34.55791 | -58.41368 | 29 ft | 4 kts | 304° |
| 2026-04-22 17:49 | -34.55770 | -58.41384 | 27 ft | 3 kts | 14° |
| 2026-04-22 17:49 | -34.55747 | -58.41372 | 26 ft | 2 kts | 26° |
| 2026-04-22 17:49 | -34.55741 | -58.41368 | 25 ft | 0 kts | 31° |
| 2026-04-22 17:50 | -34.55736 | -58.41364 | 25 ft | 0 kts | 33° |